createdAt,value
2019-05-15T00:00:32.692Z,94.78
2019-05-15T00:03:04.162Z,94.56
2019-05-15T00:05:35.140Z,94.87
2019-05-15T00:08:09.031Z,95.39
2019-05-15T00:10:39.431Z,95.56
2019-05-15T00:13:10.766Z,95.96
2019-05-15T00:15:41.654Z,96.25
2019-05-15T00:18:12.865Z,96.08
2019-05-15T00:20:43.881Z,96.04
2019-05-15T00:23:15.126Z,96.24
2019-05-15T00:25:48.586Z,96.60
2019-05-15T00:28:18.522Z,97.50
2019-05-15T00:30:49.843Z,97.64
2019-05-15T00:33:20.822Z,98.26
2019-05-15T00:35:51.976Z,98.43
2019-05-15T00:38:22.884Z,98.43
2019-05-15T00:40:54.004Z,98.47
2019-05-15T00:43:24.897Z,98.60
2019-05-15T00:45:58.440Z,98.35
2019-05-15T00:48:29.298Z,98.46
2019-05-15T00:51:00.608Z,98.67
2019-05-15T00:53:31.554Z,98.72
2019-05-15T00:56:02.776Z,98.88
2019-05-15T00:58:33.815Z,98.81
2019-05-15T01:01:05.224Z,99.31
2019-05-15T01:03:38.538Z,98.94
2019-05-15T01:06:08.458Z,99.11
2019-05-15T01:08:39.678Z,98.85
2019-05-15T01:11:10.634Z,99.19
2019-05-15T01:13:41.779Z,99.05
2019-05-15T01:16:12.692Z,99.36
2019-05-15T01:18:43.888Z,99.17
2019-05-15T01:21:14.796Z,99.00
2019-05-15T01:23:48.246Z,98.76
2019-05-15T01:26:19.008Z,98.43
2019-05-15T01:28:50.228Z,98.63
2019-05-15T01:31:21.110Z,98.61
2019-05-15T01:33:52.258Z,99.13
2019-05-15T01:36:23.192Z,98.86
2019-05-15T01:38:53.303Z,98.85
2019-05-15T01:41:24.502Z,98.83
2019-05-15T01:43:55.386Z,98.68
2019-05-15T01:46:28.567Z,98.37
2019-05-15T01:48:59.210Z,98.23
2019-05-15T01:51:30.437Z,98.63
2019-05-15T01:54:01.323Z,98.88
2019-05-15T01:56:32.536Z,99.05
2019-05-15T01:59:03.522Z,99.12
2019-05-15T02:01:34.736Z,99.51
2019-05-15T02:04:05.719Z,99.40
2019-05-15T02:06:39.031Z,99.50
2019-05-15T02:09:09.545Z,99.57
2019-05-15T02:11:39.571Z,99.46
2019-05-15T02:14:10.700Z,99.48
2019-05-15T02:16:41.570Z,98.93
2019-05-15T02:19:12.815Z,98.29
2019-05-15T02:21:43.691Z,97.76
2019-05-15T02:24:14.934Z,97.42
2019-05-15T02:26:48.082Z,97.01
2019-05-15T02:29:24.719Z,96.69
2019-05-15T02:31:51.471Z,96.28
2019-05-15T02:34:22.588Z,96.16
2019-05-15T02:36:53.579Z,96.31
2019-05-15T02:39:24.834Z,96.05
2019-05-15T02:41:55.813Z,96.04
2019-05-15T02:44:28.909Z,96.05
2019-05-15T02:46:59.122Z,95.88
2019-05-15T02:49:30.394Z,95.81
2019-05-15T02:52:01.704Z,95.20
2019-05-15T02:54:32.615Z,94.93
2019-05-15T02:57:03.822Z,94.61
2019-05-15T02:59:34.834Z,94.56
2019-05-15T03:02:06.078Z,94.50
2019-05-15T03:04:39.940Z,94.79
2019-05-15T03:07:09.973Z,94.55
2019-05-15T03:09:40.920Z,94.09
2019-05-15T03:12:12.238Z,93.83
2019-05-15T03:14:43.253Z,93.89
2019-05-15T03:17:14.374Z,93.56
2019-05-15T03:19:45.396Z,93.17
2019-05-15T03:22:15.575Z,92.84
2019-05-15T03:24:49.999Z,92.56
2019-05-15T03:27:19.861Z,92.23
2019-05-15T03:29:51.234Z,92.01
2019-05-15T03:32:32.156Z,91.41
2019-05-15T03:34:57.294Z,90.87
2019-05-15T03:37:33.410Z,90.70
2019-05-15T03:40:00.753Z,90.49
2019-05-15T03:42:31.802Z,90.07
2019-05-15T03:45:03.099Z,89.71
2019-05-15T03:47:34.082Z,89.60
2019-05-15T03:50:09.115Z,89.45
2019-05-15T03:52:40.243Z,89.24
2019-05-15T03:55:11.236Z,88.90
2019-05-15T03:57:42.522Z,89.17
2019-05-15T04:00:14.058Z,89.17
2019-05-15T04:02:45.259Z,89.55
2019-05-15T04:05:16.327Z,90.11
2019-05-15T04:07:49.638Z,90.03
2019-05-15T04:10:20.277Z,89.85
2019-05-15T04:12:51.696Z,89.96
2019-05-15T04:15:22.724Z,90.14
2019-05-15T04:17:53.948Z,90.57
2019-05-15T04:20:24.909Z,90.33
2019-05-15T04:22:55.962Z,90.09
2019-05-15T04:25:29.692Z,90.45
2019-05-15T04:28:01.666Z,90.13
2019-05-15T04:30:32.585Z,89.90
2019-05-15T04:33:02.707Z,89.54
2019-05-15T04:35:33.950Z,88.62
2019-05-15T04:38:05.141Z,87.89
2019-05-15T04:40:39.287Z,87.71
2019-05-15T04:43:10.405Z,87.27
2019-05-15T04:45:41.988Z,86.70
2019-05-15T04:48:12.973Z,86.39
2019-05-15T04:50:44.170Z,85.67
2019-05-15T04:53:15.058Z,85.33
2019-05-15T04:55:49.104Z,84.69
2019-05-15T04:58:20.749Z,83.48
2019-05-15T05:00:55.622Z,82.72
2019-05-15T05:03:29.151Z,82.80
2019-05-15T05:05:59.265Z,82.30
2019-05-15T05:08:30.673Z,81.51
2019-05-15T05:11:01.739Z,80.89
2019-05-15T05:13:32.957Z,80.42
2019-05-15T05:16:04.001Z,79.09
2019-05-15T05:18:35.117Z,79.00
2019-05-15T05:21:07.766Z,78.38
2019-05-15T05:23:38.998Z,77.89
2019-05-15T05:26:11.209Z,77.00
2019-05-15T05:28:45.837Z,76.69
2019-05-15T05:31:19.059Z,76.13
2019-05-15T05:33:49.928Z,74.81
2019-05-15T05:36:24.461Z,73.86
2019-05-15T05:38:58.311Z,73.69
2019-05-15T05:41:28.898Z,73.52
2019-05-15T05:43:59.162Z,72.27
2019-05-15T05:46:30.384Z,71.95
2019-05-15T05:49:01.349Z,71.38
2019-05-15T05:51:32.460Z,70.30
2019-05-15T05:54:03.506Z,64.22
2019-05-15T05:56:34.602Z,58.62
2019-05-15T05:59:05.642Z,58.86
2019-05-15T06:01:43.556Z,56.10
2019-05-15T06:04:09.562Z,55.85
2019-05-15T06:06:40.693Z,56.43
2019-05-15T06:09:11.730Z,54.52
2019-05-15T06:11:43.016Z,52.93
2019-05-15T06:14:14.140Z,50.16
2019-05-15T06:16:48.193Z,46.49
2019-05-15T06:19:19.231Z,48.32
2019-05-15T06:21:57.172Z,53.30
2019-05-15T06:24:22.576Z,54.84
2019-05-15T06:26:53.551Z,53.64
2019-05-15T06:29:25.164Z,51.66
2019-05-15T06:31:56.110Z,45.68
2019-05-15T06:34:28.549Z,43.38
2019-05-15T06:36:59.623Z,45.07
2019-05-15T06:39:30.763Z,49.73
2019-05-15T06:42:01.670Z,52.24
2019-05-15T06:44:32.907Z,51.52
2019-05-15T06:47:03.873Z,51.85
2019-05-15T06:49:34.911Z,51.03
2019-05-15T06:52:06.006Z,51.28
2019-05-15T06:54:37.768Z,52.59
2019-05-15T06:57:09.310Z,54.09
2019-05-15T06:59:40.431Z,54.58
2019-05-15T07:02:11.764Z,54.72
2019-05-15T07:04:42.749Z,55.00
2019-05-15T07:07:14.092Z,53.76
2019-05-15T07:09:45.224Z,52.61
2019-05-15T07:12:18.524Z,53.49
2019-05-15T07:14:49.193Z,52.73
2019-05-15T07:17:20.368Z,52.13
2019-05-15T07:19:51.315Z,50.87
2019-05-15T07:22:22.665Z,51.15
2019-05-15T07:24:53.548Z,51.16
2019-05-15T07:27:23.715Z,51.33
2019-05-15T07:29:54.912Z,50.42
2019-05-15T07:32:28.383Z,50.82
2019-05-15T07:34:58.917Z,49.46
2019-05-15T07:37:29.868Z,49.20
2019-05-15T07:40:01.049Z,48.98
2019-05-15T07:42:32.308Z,48.22
2019-05-15T07:45:04.346Z,46.98
2019-05-15T07:47:35.296Z,46.61
2019-05-15T07:50:08.797Z,46.27
2019-05-15T07:52:40.628Z,46.06
2019-05-15T07:55:12.751Z,46.72
2019-05-15T07:57:43.774Z,47.58
2019-05-15T08:00:18.544Z,47.10
2019-05-15T08:02:48.859Z,47.26
2019-05-15T08:05:20.083Z,46.73
2019-05-15T08:07:51.190Z,46.99
2019-05-15T08:10:22.601Z,47.68
2019-05-15T08:12:53.666Z,47.61
2019-05-15T08:15:25.027Z,45.69
2019-05-15T08:20:30.336Z,45.42
2019-05-15T08:23:01.470Z,44.63
2019-05-15T08:25:35.449Z,43.29
2019-05-15T08:26:05.637Z,45.37
2019-05-15T08:28:05.351Z,42.20
2019-05-15T08:30:38.779Z,42.66
2019-05-15T08:33:09.876Z,43.53
2019-05-15T08:35:45.649Z,44.21
2019-05-15T08:38:14.314Z,45.56
2019-05-15T08:40:45.581Z,45.35
2019-05-15T08:43:18.420Z,45.08
2019-05-15T08:45:50.049Z,43.69
2019-05-15T08:48:21.021Z,44.08
2019-05-15T08:50:52.255Z,42.64
2019-05-15T08:53:23.211Z,42.24
2019-05-15T08:55:54.355Z,42.24
2019-05-15T08:58:25.284Z,41.53
2019-05-15T09:00:58.779Z,41.78
2019-05-15T09:03:29.261Z,41.31
2019-05-15T09:06:00.543Z,40.09
2019-05-15T09:08:31.510Z,40.15
2019-05-15T09:11:02.728Z,38.30
2019-05-15T09:13:33.687Z,38.64
2019-05-15T09:16:03.803Z,38.02
2019-05-15T09:18:34.969Z,37.76
2019-05-15T09:21:08.576Z,37.65
2019-05-15T09:23:39.133Z,37.08
2019-05-15T09:26:10.174Z,37.03
2019-05-15T09:28:41.321Z,36.74
2019-05-15T09:31:12.260Z,35.01
2019-05-15T09:33:43.330Z,35.20
2019-05-15T09:36:20.985Z,35.56
2019-05-15T09:38:52.231Z,34.86
2019-05-15T09:41:28.468Z,35.33
2019-05-15T09:43:59.151Z,34.53
2019-05-15T09:46:30.141Z,34.63
2019-05-15T09:49:00.611Z,35.14
2019-05-15T09:51:31.792Z,35.94
2019-05-15T09:54:02.763Z,36.32
2019-05-15T09:56:33.953Z,35.88
2019-05-15T09:59:05.099Z,36.16
2019-05-15T10:01:39.270Z,35.84
2019-05-15T10:04:08.844Z,35.90
2019-05-15T10:06:40.193Z,35.97
2019-05-15T10:09:11.227Z,35.94
2019-05-15T10:11:42.527Z,35.63
2019-05-15T10:14:13.576Z,34.37
2019-05-15T10:16:44.903Z,33.87
2019-05-15T10:19:18.354Z,33.89
2019-05-15T10:21:53.073Z,33.48
2019-05-15T10:24:21.542Z,33.42
2019-05-15T10:26:51.639Z,34.30
2019-05-15T10:29:22.962Z,33.79
2019-05-15T10:31:53.994Z,33.61
2019-05-15T10:34:25.349Z,33.99
2019-05-15T10:36:56.214Z,34.35
2019-05-15T10:39:28.782Z,34.57
2019-05-15T10:42:00.023Z,33.45
2019-05-15T10:44:35.519Z,33.40
2019-05-15T10:47:08.833Z,32.93
2019-05-15T10:49:39.846Z,32.51
2019-05-15T10:52:12.443Z,32.86
2019-05-15T10:54:43.684Z,32.64
2019-05-15T10:57:14.728Z,30.27
2019-05-15T10:59:44.828Z,31.28
2019-05-15T11:02:16.152Z,31.06
2019-05-15T11:04:48.695Z,30.65
2019-05-15T11:07:19.943Z,32.11
2019-05-15T11:09:50.936Z,31.10
2019-05-15T11:12:22.062Z,30.61
2019-05-15T11:14:52.954Z,29.91
2019-05-15T11:17:24.400Z,29.64
2019-05-15T11:19:55.373Z,29.43
2019-05-15T11:22:29.876Z,29.92
2019-05-15T11:25:00.834Z,29.06
2019-05-15T11:27:32.226Z,29.40
2019-05-15T11:30:04.519Z,28.41
2019-05-15T11:32:35.649Z,29.55
2019-05-15T11:35:09.508Z,29.20
2019-05-15T11:37:46.021Z,29.04
2019-05-15T11:40:13.947Z,27.96
2019-05-15T11:42:48.749Z,28.77
2019-05-15T11:45:21.235Z,26.67
2019-05-15T11:47:53.752Z,26.93
2019-05-15T11:50:25.204Z,27.35
2019-05-15T11:52:58.485Z,27.45
2019-05-15T11:55:29.208Z,27.42
2019-05-15T11:58:00.497Z,26.77
2019-05-15T12:00:33.410Z,27.04
2019-05-15T12:03:04.444Z,27.25
2019-05-15T12:05:38.280Z,26.32
2019-05-15T12:08:10.673Z,27.75
2019-05-15T12:10:41.425Z,27.13
2019-05-15T12:13:12.550Z,27.44
2019-05-15T12:15:44.168Z,27.81
2019-05-15T12:18:15.425Z,27.81
2019-05-15T12:20:48.576Z,26.26
2019-05-15T12:23:22.928Z,26.26
2019-05-15T12:25:53.875Z,25.65
2019-05-15T12:28:25.038Z,24.39
2019-05-15T12:33:30.784Z,24.64
2019-05-15T12:36:10.196Z,24.37
2019-05-15T12:38:39.926Z,24.09
2019-05-15T13:01:32.237Z,27.01
2019-05-15T13:04:03.260Z,26.96
2019-05-15T13:06:47.332Z,27.66
2019-05-15T13:09:08.692Z,27.63
2019-05-15T13:11:40.219Z,28.00
2019-05-15T13:14:11.258Z,28.72
2019-05-15T13:16:42.404Z,29.41
2019-05-15T13:19:13.515Z,29.90
2019-05-15T13:21:44.882Z,29.72
2019-05-15T13:24:15.769Z,29.18
2019-05-15T13:26:47.657Z,29.82
2019-05-15T13:29:18.961Z,29.88
2019-05-15T13:31:50.005Z,30.22
2019-05-15T13:34:22.089Z,31.25
2019-05-15T13:36:54.020Z,30.91
2019-05-15T13:39:25.162Z,30.78
2019-05-15T13:41:58.386Z,31.56
2019-05-15T13:44:29.423Z,32.03
2019-05-15T13:47:00.351Z,32.26
2019-05-15T13:49:31.466Z,33.15
2019-05-15T13:52:02.373Z,34.57
2019-05-15T13:54:33.702Z,34.73
2019-05-15T13:57:04.714Z,35.60
2019-05-15T13:59:38.881Z,35.80
2019-05-15T14:02:08.798Z,36.11
2019-05-15T14:04:38.966Z,36.97
2019-05-15T14:07:10.285Z,36.35
2019-05-15T14:09:44.684Z,36.43
2019-05-15T14:12:17.963Z,36.07
2019-05-15T14:14:49.128Z,35.12
2019-05-15T14:17:20.408Z,35.44
2019-05-15T14:19:51.441Z,35.89
2019-05-15T14:22:22.775Z,36.04
2019-05-15T14:24:53.675Z,36.67
2019-05-15T14:27:24.930Z,38.05
2019-05-15T14:29:58.065Z,38.27
2019-05-15T14:32:38.133Z,38.91
2019-05-15T14:35:01.756Z,39.36
2019-05-15T14:37:31.850Z,40.91
2019-05-15T14:40:02.999Z,41.99
2019-05-15T14:42:34.039Z,42.35
2019-05-15T14:45:09.132Z,42.76
2019-05-15T14:47:40.226Z,42.57
2019-05-15T14:50:11.986Z,42.85
2019-05-15T14:52:47.988Z,43.20
2019-05-15T14:55:20.531Z,44.34
2019-05-15T14:57:51.574Z,44.84
2019-05-15T15:00:28.581Z,45.01
2019-05-15T15:02:58.272Z,44.89
2019-05-15T15:05:28.658Z,45.65
2019-05-15T15:08:17.214Z,45.39
2019-05-15T15:10:35.384Z,45.85
2019-05-15T15:13:09.022Z,45.92
2019-05-15T15:15:38.652Z,46.30
2019-05-15T15:18:10.163Z,46.36
2019-05-15T15:20:41.058Z,47.36
2019-05-15T15:23:12.193Z,47.81
2019-05-15T15:25:43.080Z,49.04
2019-05-15T15:28:14.148Z,49.25
2019-05-15T15:30:48.441Z,50.35
2019-05-15T15:33:18.854Z,50.98
2019-05-15T15:35:49.817Z,51.68
2019-05-15T15:38:38.072Z,52.10
2019-05-15T15:40:54.640Z,52.54
2019-05-15T15:43:28.637Z,52.62
2019-05-15T15:45:59.004Z,52.92
2019-05-15T15:48:30.422Z,52.79
2019-05-15T15:51:01.352Z,52.75
2019-05-15T15:53:31.555Z,53.28
2019-05-15T15:56:03.128Z,53.28
2019-05-15T15:58:34.197Z,53.52
2019-05-15T16:01:05.439Z,54.37
2019-05-15T16:03:38.067Z,53.99
2019-05-15T16:06:09.327Z,54.32
2019-05-15T16:08:52.166Z,54.09
2019-05-15T16:11:13.010Z,54.71
2019-05-15T16:13:46.351Z,54.81
2019-05-15T16:16:17.930Z,55.30
2019-05-15T16:18:49.282Z,55.60
2019-05-15T16:21:20.671Z,55.66
2019-05-15T16:23:51.663Z,55.56
2019-05-15T16:26:21.805Z,55.07
2019-05-15T16:28:53.026Z,55.21
2019-05-15T16:31:24.081Z,55.56
2019-05-15T16:33:55.265Z,56.11
2019-05-15T16:36:26.158Z,56.42
2019-05-15T16:39:07.519Z,56.27
2019-05-15T16:41:30.194Z,56.60
2019-05-15T16:44:01.473Z,57.04
2019-05-15T16:46:32.537Z,57.25
2019-05-15T16:49:05.520Z,57.23
2019-05-15T16:51:38.278Z,57.20
2019-05-15T16:54:09.578Z,57.16
2019-05-15T16:56:43.562Z,57.26
2019-05-15T16:59:18.261Z,57.69
2019-05-15T17:01:49.208Z,57.28
2019-05-15T17:04:19.342Z,57.91
2019-05-15T17:06:50.647Z,57.72
2019-05-15T17:09:21.991Z,58.13
2019-05-15T17:11:53.216Z,58.31
2019-05-15T17:14:24.350Z,58.73
2019-05-15T17:16:55.688Z,59.05
2019-05-15T17:19:29.300Z,58.75
2019-05-15T17:21:59.623Z,58.73
2019-05-15T17:24:30.576Z,59.25
2019-05-15T17:27:01.875Z,59.24
2019-05-15T17:29:32.946Z,58.81
2019-05-15T17:32:04.117Z,59.29
2019-05-15T17:34:35.117Z,59.43
2019-05-15T17:37:05.350Z,59.69
2019-05-15T17:39:40.810Z,59.78
2019-05-15T17:42:11.236Z,60.21
2019-05-15T17:44:42.403Z,60.32
2019-05-15T17:47:13.511Z,60.52
2019-05-15T17:49:44.568Z,60.69
2019-05-15T17:52:18.487Z,60.86
2019-05-15T17:54:50.031Z,61.03
2019-05-15T17:57:20.911Z,61.19
2019-05-15T17:59:52.054Z,61.20
2019-05-15T18:02:23.108Z,61.06
2019-05-15T18:04:54.501Z,61.30
2019-05-15T18:07:28.022Z,61.18
2019-05-15T18:09:59.112Z,61.31
2019-05-15T18:12:30.504Z,61.44
2019-05-15T18:15:01.940Z,61.59
2019-05-15T18:17:38.866Z,61.91
2019-05-15T18:20:10.061Z,62.38
2019-05-15T18:22:41.453Z,62.75
2019-05-15T18:25:12.940Z,62.82
2019-05-15T18:27:47.910Z,62.96
2019-05-15T18:30:18.488Z,62.68
2019-05-15T18:32:49.625Z,63.13
2019-05-15T18:35:20.589Z,63.38
2019-05-15T18:37:51.858Z,63.41
2019-05-15T18:40:22.974Z,63.41
2019-05-15T18:42:54.194Z,63.60
2019-05-15T18:45:25.100Z,63.84
2019-05-15T18:47:58.813Z,63.63
2019-05-15T18:50:30.047Z,63.59
2019-05-15T18:53:01.010Z,63.44
2019-05-15T18:55:32.326Z,63.62
2019-05-15T18:58:03.610Z,63.60
2019-05-15T19:00:36.189Z,63.94
2019-05-15T19:03:19.074Z,63.77
2019-05-15T19:05:40.177Z,63.79
2019-05-15T19:08:11.139Z,63.58
2019-05-15T19:10:42.382Z,63.75
2019-05-15T19:13:13.262Z,63.76
2019-05-15T19:15:44.674Z,63.57
2019-05-15T19:18:15.659Z,63.73
2019-05-15T19:20:48.709Z,63.67
2019-05-15T19:23:19.711Z,63.81
2019-05-15T19:25:49.752Z,63.72
2019-05-15T19:28:20.988Z,63.78
2019-05-15T19:30:51.937Z,63.79
2019-05-15T19:33:34.539Z,64.26
2019-05-15T19:35:55.718Z,63.27
2019-05-15T19:38:27.959Z,63.05
2019-05-15T19:41:03.074Z,63.03
2019-05-15T19:43:31.914Z,62.90
2019-05-15T19:46:03.033Z,63.04
2019-05-15T19:48:34.417Z,63.03
2019-05-15T19:51:05.466Z,62.96
2019-05-15T19:53:36.627Z,63.05
2019-05-15T19:56:08.429Z,62.99
2019-05-15T19:58:38.702Z,62.72
2019-05-15T20:01:09.945Z,62.70
2019-05-15T20:03:49.378Z,62.67
2019-05-15T20:06:13.859Z,62.70
2019-05-15T20:08:44.744Z,63.10
2019-05-15T20:11:18.045Z,63.12
2019-05-15T20:13:49.003Z,63.07
2019-05-15T20:16:21.432Z,63.25
2019-05-15T20:18:52.532Z,63.08
2019-05-15T20:21:23.728Z,62.99
2019-05-15T20:23:54.679Z,63.08
2019-05-15T20:26:28.468Z,63.14
2019-05-15T20:28:58.515Z,63.30
2019-05-15T20:31:28.739Z,63.55
2019-05-15T20:34:05.155Z,64.16
2019-05-15T20:36:32.535Z,63.73
2019-05-15T20:39:05.081Z,63.78
2019-05-15T20:41:38.071Z,63.64
2019-05-15T20:44:09.018Z,63.95
2019-05-15T20:46:39.997Z,63.83
2019-05-15T20:49:11.159Z,64.26
2019-05-15T20:51:42.108Z,64.11
2019-05-15T20:54:13.453Z,64.01
2019-05-15T20:56:44.353Z,64.67
2019-05-15T20:59:15.623Z,65.34
2019-05-15T21:01:48.296Z,64.96
2019-05-15T21:04:20.654Z,64.95
2019-05-15T21:06:52.167Z,65.15
2019-05-15T21:09:22.360Z,65.32
2019-05-15T21:11:53.573Z,65.85
2019-05-15T21:14:24.514Z,66.04
2019-05-15T21:16:55.617Z,65.76
2019-05-15T21:19:27.930Z,65.70
2019-05-15T21:21:59.425Z,65.77
2019-05-15T21:24:30.344Z,65.32
2019-05-15T21:27:01.387Z,65.32
2019-05-15T21:29:32.323Z,65.66
2019-05-15T21:32:03.628Z,65.92
2019-05-15T21:34:37.899Z,66.52
2019-05-15T21:37:08.576Z,66.55
2019-05-15T21:39:39.678Z,66.64
2019-05-15T21:42:09.803Z,67.18
2019-05-15T21:44:40.912Z,67.80
2019-05-15T21:47:11.841Z,68.02
2019-05-15T21:49:42.880Z,68.60
2019-05-15T21:52:13.859Z,69.52
2019-05-15T21:54:45.145Z,69.81
2019-05-15T21:57:32.330Z,70.18
2019-05-15T21:59:49.069Z,71.07
2019-05-15T22:02:20.648Z,72.58
2019-05-15T22:04:55.986Z,74.88
2019-05-15T22:07:42.664Z,77.73
2019-05-15T22:10:21.134Z,78.76
2019-05-15T22:12:52.204Z,80.37
2019-05-15T22:15:23.615Z,80.16
2019-05-15T22:17:54.682Z,79.33
2019-05-15T22:20:24.810Z,79.42
2019-05-15T22:22:55.938Z,79.18
2019-05-15T22:25:29.570Z,79.97
2019-05-15T22:28:01.111Z,78.48
2019-05-15T22:30:32.165Z,78.68
2019-05-15T22:33:03.412Z,78.46
2019-05-15T22:35:34.626Z,78.45
2019-05-15T22:38:05.793Z,78.43
2019-05-15T22:40:38.030Z,77.63
2019-05-15T22:43:10.829Z,77.95
2019-05-15T22:45:41.884Z,77.66
2019-05-15T22:48:13.200Z,77.13
2019-05-15T22:50:44.067Z,76.76
2019-05-15T22:53:17.656Z,77.17
2019-05-15T22:55:48.542Z,76.65
2019-05-15T22:58:18.678Z,77.18
2019-05-15T23:00:49.798Z,76.38
2019-05-15T23:03:20.831Z,76.13
2019-05-15T23:05:52.004Z,76.27
2019-05-15T23:08:23.029Z,76.40
2019-05-15T23:10:54.531Z,76.64
2019-05-15T23:13:25.489Z,76.44
2019-05-15T23:15:58.429Z,76.24
2019-05-15T23:18:29.686Z,76.02
2019-05-15T23:21:00.733Z,76.17
2019-05-15T23:23:31.676Z,76.01
2019-05-15T23:26:02.876Z,75.85
2019-05-15T23:28:33.922Z,76.20
2019-05-15T23:31:04.028Z,76.21
2019-05-15T23:33:35.258Z,76.33
2019-05-15T23:36:06.145Z,76.46
2019-05-15T23:38:38.450Z,76.09
2019-05-15T23:41:09.536Z,76.06
2019-05-15T23:43:40.682Z,76.33
2019-05-15T23:46:11.715Z,76.27
2019-05-15T23:48:42.920Z,76.30
2019-05-15T23:51:13.965Z,76.33
2019-05-15T23:53:45.128Z,76.41
2019-05-15T23:56:18.619Z,76.21
2019-05-15T23:58:49.147Z,76.17
